Hampton, Virginia
Current Conditions -  °F | °C
As of 7:58 PM on Saturday 25 Oct 2014 (Local Time) from KLFI Reporting Station
Clear Clear  
Wind Chill: 60°   Ceiling: Unl
Heat Index: 60°   Visibility: 10mi
Dew Point: 45°   Wind: 9mph
Humidity: 56%   Direction: 200°SSW
Pressure: 29.82"   Gusts: NA
Location:  37.03°N, 76.34°W
Report Text: KLFI 252358Z AUTO 20008KT 10SM CLR 16/07 A2982 RMK AO2 SLP105 T01580071 10205 20147 55006 $
Loading
Personal Weather Stations






























Interactive Weather Map
Tropical Storm Tracking
New forecast layout! Learn more

10-Day Weather Forecast

Advertisements
Track Severe Weather on mobile